Aviation Digital Data Service (ADDS)

Output produced by TAFs form (0149 UTC 18 October 2017)
found at http://www.aviationweather.gov/adds/tafs/
 
METAR text: KIND 180054Z 18007KT 10SM CLR 13/04 A3025 RMK AO2 SLP245 T01280044
Conditions at: KIND (INDIANAPOLIS , IN, US) observed 0054 UTC 18 October 2017
Temperature: 12.8°C (55°F)
Dewpoint: 4.4°C (40°F) [RH = 57%]
Pressure (altimeter): 30.25 inches Hg (1024.5 mb)
[Sea-level pressure: 1024.5 mb]
Winds: from the S (180 degrees) at 8 MPH (7 knots; 3.6 m/s)
Visibility: 10 or more miles (16+ km)
Ceiling: at least 12,000 feet AGL
Clouds: sky clear below 12,000 feet AGL
Weather: no significant weather observed at this time

Forecast for: KIND (INDIANAPOLIS , IN, US)
Text: KIND 172324Z 1800/1906 19006KT P6SM FEW250
Forecast period: 0000 UTC 18 October 2017 to 0600 UTC 19 October 2017
Forecast type: FROM: standard forecast or significant change
Winds: from the S (190 degrees) at 7 MPH (6 knots; 3.1 m/s)
Visibility: 6 or more miles (10+ km)
Clouds: few clouds at 25000 feet AGL
Weather: no significant weather forecast for this period